createdAt,value
2018-03-19T00:00:18.700Z,2.8
2018-03-19T00:02:19.432Z,2.5
2018-03-19T00:04:19.171Z,2.7
2018-03-19T00:06:19.270Z,2.1
2018-03-19T00:08:19.010Z,2.3
2018-03-19T00:10:19.240Z,3.7
2018-03-19T00:12:18.986Z,2.6
2018-03-19T00:14:18.738Z,2.6
2018-03-19T00:16:19.332Z,2.4
2018-03-19T00:18:19.151Z,3
2018-03-19T00:20:19.052Z,3
2018-03-19T00:22:18.976Z,2.6
2018-03-19T00:24:18.709Z,2.4
2018-03-19T00:26:19.274Z,3.3
2018-03-19T00:28:19.008Z,2.7
2018-03-19T00:30:18.718Z,3.4
2018-03-19T00:32:19.444Z,2.3
2018-03-19T00:34:19.201Z,2.4
2018-03-19T00:36:19.284Z,3.2
2018-03-19T00:38:19.029Z,2.4
2018-03-19T00:40:19.316Z,2.8
2018-03-19T00:42:19.070Z,3
2018-03-19T00:44:18.799Z,3.8
2018-03-19T00:46:19.335Z,3.4
2018-03-19T00:48:19.083Z,2.7
2018-03-19T00:50:18.875Z,2.8
2018-03-19T00:52:18.619Z,3.9
2018-03-19T00:54:19.384Z,3
2018-03-19T00:56:18.878Z,4
2018-03-19T00:58:18.610Z,2.9
2018-03-19T01:00:19.531Z,2.7
2018-03-19T01:02:19.303Z,3.1
2018-03-19T01:04:19.102Z,3.3
2018-03-19T01:06:19.197Z,2.5
2018-03-19T01:08:19.009Z,2.8
2018-03-19T01:10:19.272Z,3.3
2018-03-19T01:12:19.015Z,3.3
2018-03-19T01:14:18.770Z,2.2
2018-03-19T01:16:19.421Z,3.6
2018-03-19T01:18:19.237Z,3.5
2018-03-19T01:20:19.007Z,2.9
2018-03-19T01:22:18.731Z,3
2018-03-19T01:24:18.479Z,3.2
2018-03-19T01:26:19.012Z,2.9
2018-03-19T01:28:18.756Z,3.1
2018-03-19T01:30:18.527Z,4.6
2018-03-19T01:32:19.255Z,3.2
2018-03-19T01:34:18.980Z,4
2018-03-19T01:36:18.545Z,3.9
2018-03-19T01:38:19.276Z,3.2
2018-03-19T01:40:18.507Z,3.4
2018-03-19T01:42:19.245Z,3.8
2018-03-19T01:44:18.966Z,3.3
2018-03-19T01:46:18.506Z,3.5
2018-03-19T01:48:19.248Z,3.2
2018-03-19T01:50:19.019Z,3.7
2018-03-19T01:52:18.757Z,2.9
2018-03-19T01:54:18.485Z,3.8
2018-03-19T01:56:18.585Z,3
2018-03-19T01:58:19.313Z,3.2
2018-03-19T02:00:19.119Z,2.6
2018-03-19T02:02:18.873Z,4.1
2018-03-19T02:04:18.642Z,3.2
2018-03-19T02:06:19.167Z,3.2
2018-03-19T02:08:18.935Z,3.9
2018-03-19T02:10:19.192Z,4
2018-03-19T02:12:18.922Z,3.9
2018-03-19T02:14:18.668Z,3.6
2018-03-19T02:16:19.321Z,4.7
2018-03-19T02:18:19.222Z,3
2018-03-19T02:20:18.987Z,4.1
2018-03-19T02:22:18.739Z,3
2018-03-19T02:24:18.471Z,3.8
2018-03-19T02:26:18.484Z,2.1
2018-03-19T02:28:19.217Z,3.6
2018-03-19T02:30:18.958Z,3.4
2018-03-19T02:32:18.705Z,3.2
2018-03-19T02:34:18.466Z,4.2
2018-03-19T02:36:19.191Z,3.7
2018-03-19T02:38:18.939Z,3.6
2018-03-19T02:40:19.201Z,4.2
2018-03-19T02:42:18.987Z,3.3
2018-03-19T02:44:18.743Z,3.1
2018-03-19T02:46:18.776Z,3.3
2018-03-19T02:48:18.529Z,3.2
2018-03-19T02:50:19.303Z,4.8
2018-03-19T02:52:19.029Z,3.1
2018-03-19T02:54:18.776Z,4.7
2018-03-19T02:56:18.820Z,3.9
2018-03-19T02:58:18.572Z,3.7
2018-03-19T03:00:19.325Z,4
2018-03-19T03:02:19.060Z,4.4
2018-03-19T03:04:18.786Z,3.9
2018-03-19T03:06:18.484Z,3.6
2018-03-19T03:08:19.219Z,3.7
2018-03-19T03:10:18.480Z,3.7
2018-03-19T03:12:19.228Z,3.8
2018-03-19T03:14:18.934Z,3.1
2018-03-19T03:16:18.493Z,4.3
2018-03-19T03:18:19.302Z,4.3
2018-03-19T03:20:19.047Z,2.9
2018-03-19T03:22:18.765Z,2.7
2018-03-19T03:24:18.486Z,3.9
2018-03-19T03:26:19.108Z,4.4
2018-03-19T03:28:18.856Z,3.7
2018-03-19T03:30:18.639Z,3.9
2018-03-19T03:32:19.386Z,3.5
2018-03-19T03:34:19.100Z,4
2018-03-19T03:36:19.151Z,4
2018-03-19T03:38:18.890Z,4
2018-03-19T03:40:19.138Z,4.1
2018-03-19T03:42:19.181Z,4.3
2018-03-19T03:44:18.927Z,3
2018-03-19T03:46:18.674Z,3.7
2018-03-19T03:48:19.414Z,4.1
2018-03-19T03:50:19.177Z,3.9
2018-03-19T03:52:18.916Z,4.3
2018-03-19T03:54:18.679Z,4
2018-03-19T03:56:19.252Z,3.8
2018-03-19T03:58:18.977Z,4.2
2018-03-19T04:00:18.715Z,3.8
2018-03-19T04:02:19.451Z,4.5
2018-03-19T04:04:19.200Z,5.2
2018-03-19T04:06:18.724Z,2.5
2018-03-19T04:08:18.465Z,3.8
2018-03-19T04:10:18.679Z,4.1
2018-03-19T04:12:19.417Z,3.7
2018-03-19T04:14:19.133Z,4.1
2018-03-19T04:16:18.650Z,3.4
2018-03-19T04:18:18.481Z,4
2018-03-19T04:20:19.230Z,4.5
2018-03-19T04:22:18.965Z,4.6
2018-03-19T04:24:18.731Z,4.3
2018-03-19T04:26:18.789Z,3.9
2018-03-19T04:28:18.568Z,4.3
2018-03-19T04:30:19.391Z,3
2018-03-19T04:32:19.229Z,3.8
2018-03-19T04:34:19.083Z,3.8
2018-03-19T04:36:19.322Z,4.1
2018-03-19T04:38:19.175Z,3.8
2018-03-19T04:40:19.487Z,3.9
2018-03-19T04:42:19.312Z,3.7
2018-03-19T04:44:19.152Z,4.8
2018-03-19T04:46:18.994Z,3.5
2018-03-19T04:48:18.828Z,3.9
2018-03-19T04:50:18.656Z,3.7
2018-03-19T04:52:19.499Z,3.1
2018-03-19T04:54:19.346Z,3.9
2018-03-19T04:56:19.048Z,3.9
2018-03-19T04:58:18.868Z,3.7
2018-03-19T05:00:18.685Z,4
2018-03-19T05:02:18.523Z,4.4
2018-03-19T05:04:19.372Z,3.8
2018-03-19T05:06:18.575Z,4.5
2018-03-19T05:08:19.399Z,3.4
2018-03-19T05:10:18.713Z,4.3
2018-03-19T05:12:18.559Z,3.4
2018-03-19T05:14:19.397Z,4.6
2018-03-19T05:16:19.395Z,4.3
2018-03-19T05:18:19.309Z,3.5
2018-03-19T05:20:19.154Z,4.3
2018-03-19T05:22:19.000Z,3.5
2018-03-19T05:24:18.831Z,3.8
2018-03-19T05:26:19.090Z,4.2
2018-03-19T05:28:18.918Z,4.5
2018-03-19T05:30:18.817Z,3.5
2018-03-19T05:32:18.674Z,3.7
2018-03-19T05:34:18.505Z,3.6
2018-03-19T05:36:19.219Z,3.5
2018-03-19T05:38:19.041Z,3.6
2018-03-19T05:40:19.371Z,3.7
2018-03-19T05:42:19.197Z,5.1
2018-03-19T05:44:19.039Z,3.8
2018-03-19T05:46:18.771Z,6.2
2018-03-19T05:48:18.607Z,3.7
2018-03-19T05:50:19.431Z,3.1
2018-03-19T05:52:19.264Z,4.5
2018-03-19T05:54:19.079Z,3
2018-03-19T05:56:19.298Z,4.5
2018-03-19T05:58:19.134Z,3.9
2018-03-19T06:00:18.986Z,4.1
2018-03-19T06:02:18.877Z,5.5
2018-03-19T06:04:18.722Z,3.9
2018-03-19T06:06:18.988Z,4.3
2018-03-19T06:08:18.816Z,3.1
2018-03-19T06:10:19.155Z,2.9
2018-03-19T06:12:19.013Z,5.1
2018-03-19T06:14:18.849Z,3.9
2018-03-19T06:16:18.777Z,3.7
2018-03-19T06:18:18.644Z,3.8
2018-03-19T06:20:19.490Z,4.1
2018-03-19T06:22:19.320Z,4.5
2018-03-19T06:24:19.129Z,3.5
2018-03-19T06:26:18.921Z,3.3
2018-03-19T06:28:18.750Z,3
2018-03-19T06:30:18.623Z,2.9
2018-03-19T06:32:19.475Z,3
2018-03-19T06:34:19.303Z,3.6
2018-03-19T06:36:18.980Z,3.9
2018-03-19T06:38:18.834Z,4.3
2018-03-19T06:40:19.132Z,3.2
2018-03-19T06:42:18.962Z,3
2018-03-19T06:44:18.781Z,3.3
2018-03-19T06:46:19.017Z,4.6
2018-03-19T06:48:18.868Z,3.6
2018-03-19T06:50:18.756Z,3.2
2018-03-19T06:52:18.625Z,3.4
2018-03-19T06:54:19.456Z,3.4
2018-03-19T06:56:19.142Z,3.8
2018-03-19T06:58:19.002Z,3.8
2018-03-19T07:00:18.848Z,4.1
2018-03-19T07:02:18.685Z,3.9
2018-03-19T07:04:18.512Z,3
2018-03-19T07:06:19.326Z,3.1
2018-03-19T07:08:19.271Z,3.2
2018-03-19T07:10:18.618Z,3.6
2018-03-19T07:12:19.442Z,4.2
2018-03-19T07:14:19.269Z,3.3
2018-03-19T07:16:19.006Z,3.7
2018-03-19T07:18:18.961Z,4.2
2018-03-19T07:20:18.799Z,3.7
2018-03-19T07:22:18.641Z,3.4
2018-03-19T07:24:19.474Z,2.2
2018-03-19T07:26:19.184Z,2.7
2018-03-19T07:28:19.019Z,3.2
2018-03-19T07:30:18.857Z,3.6
2018-03-19T07:32:18.687Z,4.2
2018-03-19T07:34:18.537Z,3.5
2018-03-19T07:36:18.828Z,3.2
2018-03-19T07:38:18.680Z,2.9
2018-03-19T07:40:18.978Z,3.1
2018-03-19T07:42:18.816Z,3
2018-03-19T07:44:18.653Z,3.1
2018-03-19T07:46:18.866Z,2.7
2018-03-19T07:48:18.694Z,2.6
2018-03-19T07:50:18.537Z,2.4
2018-03-19T07:52:19.371Z,2.7
2018-03-19T07:54:19.195Z,2.6
2018-03-19T07:56:18.896Z,2
2018-03-19T07:58:18.760Z,2.4
2018-03-19T08:00:18.588Z,2.5
2018-03-19T08:02:19.420Z,2
2018-03-19T08:04:19.268Z,2.8
2018-03-19T08:06:19.044Z,2.1
2018-03-19T08:08:18.891Z,1.9
2018-03-19T08:10:19.213Z,2.4
2018-03-19T08:12:19.120Z,3.1
2018-03-19T08:14:18.990Z,1.7
2018-03-19T08:16:18.715Z,2.1
2018-03-19T08:18:18.639Z,3.2
2018-03-19T08:20:19.516Z,2.2
2018-03-19T08:22:19.362Z,2.2
2018-03-19T08:24:19.218Z,1.9
2018-03-19T08:26:18.720Z,2
2018-03-19T08:28:18.557Z,1.8
2018-03-19T08:30:19.422Z,2.1
2018-03-19T08:32:19.266Z,1.9
2018-03-19T08:34:19.127Z,2.6
2018-03-19T08:36:18.848Z,2.4
2018-03-19T08:38:18.681Z,2.3
2018-03-19T08:40:19.017Z,2.3
2018-03-19T08:42:18.892Z,2
2018-03-19T08:44:18.717Z,2.5
2018-03-19T08:46:18.963Z,1.8
2018-03-19T08:48:18.793Z,1.8
2018-03-19T08:50:18.632Z,2.7
2018-03-19T08:52:19.489Z,2.2
2018-03-19T08:54:19.353Z,1.7
2018-03-19T08:56:18.737Z,1.9
2018-03-19T08:58:18.581Z,2.4
2018-03-19T09:00:19.467Z,1.9
2018-03-19T09:02:19.339Z,2
2018-03-19T09:04:19.245Z,2.4
2018-03-19T09:06:18.570Z,2.3
2018-03-19T09:08:19.429Z,2.3
2018-03-19T09:10:18.917Z,2.2
2018-03-19T09:12:18.748Z,2
2018-03-19T09:14:18.598Z,2
2018-03-19T09:16:19.285Z,2.2
2018-03-19T09:18:19.204Z,2.1
2018-03-19T09:20:19.037Z,2.1
2018-03-19T09:22:18.873Z,3.1
2018-03-19T09:24:18.688Z,2.5
2018-03-19T09:26:19.408Z,1.7
2018-03-19T09:28:19.264Z,2
2018-03-19T09:30:19.159Z,2.1
2018-03-19T09:32:18.984Z,2
2018-03-19T09:34:18.816Z,2.2
2018-03-19T09:36:19.228Z,2.2
2018-03-19T09:38:19.063Z,2.1
2018-03-19T09:40:19.374Z,2
2018-03-19T09:42:19.227Z,2.3
2018-03-19T09:44:19.072Z,2.2
2018-03-19T09:46:19.348Z,1.1
2018-03-19T09:48:19.202Z,2.2
2018-03-19T09:50:19.176Z,1.8
2018-03-19T09:52:19.052Z,1.4
2018-03-19T09:54:18.907Z,1
2018-03-19T09:56:18.599Z,2.5
2018-03-19T09:58:19.462Z,1.7
2018-03-19T10:00:19.323Z,1.4
2018-03-19T10:02:19.177Z,1.7
2018-03-19T10:04:19.025Z,2.1
2018-03-19T10:06:19.256Z,1.4
2018-03-19T10:08:19.091Z,1.7
2018-03-19T10:10:19.443Z,2
2018-03-19T10:12:19.303Z,1.7
2018-03-19T10:14:19.181Z,2.1
2018-03-19T10:16:18.892Z,1.5
2018-03-19T10:18:18.943Z,1.9
2018-03-19T10:20:18.806Z,1.5
2018-03-19T10:22:18.684Z,1.6
2018-03-19T10:24:18.535Z,2.4
2018-03-19T10:26:19.196Z,2.4
2018-03-19T10:28:19.047Z,1.7
2018-03-19T10:30:18.899Z,1.6
2018-03-19T10:32:18.774Z,1.9
2018-03-19T10:34:18.630Z,1.8
2018-03-19T10:36:18.906Z,1.7
2018-03-19T10:38:18.758Z,1.8
2018-03-19T10:40:19.200Z,1.7
2018-03-19T10:42:19.076Z,1.8
2018-03-19T10:44:18.924Z,1.4
2018-03-19T10:46:18.636Z,1.7
2018-03-19T10:48:19.514Z,2.2
2018-03-19T10:50:19.359Z,1.8
2018-03-19T10:52:19.223Z,1.6
2018-03-19T10:54:19.077Z,1.3
2018-03-19T10:56:18.506Z,1.1
2018-03-19T10:58:19.370Z,2
2018-03-19T11:00:19.242Z,1.8
2018-03-19T11:02:19.115Z,1.6
2018-03-19T11:04:18.999Z,1.8
2018-03-19T11:06:18.770Z,2.1
2018-03-19T11:08:18.626Z,1.5
2018-03-19T11:10:18.930Z,1.1
2018-03-19T11:12:18.804Z,1.4
2018-03-19T11:14:18.786Z,1.6
2018-03-19T11:16:19.479Z,1.8
2018-03-19T11:18:19.409Z,1.5
2018-03-19T11:20:19.288Z,1.4
2018-03-19T11:22:19.134Z,2.1
2018-03-19T11:24:18.967Z,1.2
2018-03-19T11:26:18.662Z,1.9
2018-03-19T11:28:19.515Z,1.5
2018-03-19T11:30:19.381Z,1.4
2018-03-19T11:32:19.257Z,1.6
2018-03-19T11:34:19.116Z,1.5
2018-03-19T11:36:18.634Z,1.1
2018-03-19T11:38:19.565Z,1.7
2018-03-19T11:40:19.011Z,2.4
2018-03-19T11:42:18.860Z,1.1
2018-03-19T11:44:18.703Z,1.2
2018-03-19T11:46:19.412Z,1.4
2018-03-19T11:48:19.251Z,0.9
2018-03-19T11:50:19.148Z,2.5
2018-03-19T11:52:19.022Z,1.3
2018-03-19T11:54:18.873Z,1.4
2018-03-19T11:56:19.144Z,1.8
2018-03-19T11:58:19.017Z,1.7
2018-03-19T12:00:18.864Z,1
2018-03-19T12:02:18.753Z,1.1
2018-03-19T12:04:18.594Z,2
2018-03-19T12:06:18.895Z,1.4
2018-03-19T12:08:18.746Z,1.6
2018-03-19T12:10:19.120Z,1.4
2018-03-19T12:12:18.982Z,1.9
2018-03-19T12:14:18.963Z,1
2018-03-19T12:16:18.705Z,1.6
2018-03-19T12:18:18.623Z,1.5
2018-03-19T12:20:19.485Z,1.7
2018-03-19T12:22:19.328Z,1.6
2018-03-19T12:24:19.195Z,1.9
2018-03-19T12:26:18.983Z,1.2
2018-03-19T12:28:18.871Z,1.5
2018-03-19T12:30:18.738Z,1.9
2018-03-19T12:32:18.591Z,1.1
2018-03-19T12:34:19.448Z,1.1
2018-03-19T12:36:19.251Z,1.2
2018-03-19T12:38:19.143Z,1.2
2018-03-19T12:40:19.446Z,1.8
2018-03-19T12:42:19.313Z,2
2018-03-19T12:44:19.182Z,1.7
2018-03-19T12:46:18.749Z,2.1
2018-03-19T12:48:18.619Z,1.4
2018-03-19T12:50:19.486Z,1.7
2018-03-19T12:52:19.359Z,1.4
2018-03-19T12:54:19.197Z,1.8
2018-03-19T12:56:18.947Z,1.3
2018-03-19T12:58:18.812Z,1.5
2018-03-19T13:00:18.676Z,1.6
2018-03-19T13:02:18.557Z,1.7
2018-03-19T13:04:19.422Z,1.3
2018-03-19T13:06:19.209Z,1.2
2018-03-19T13:08:19.087Z,1.4
2018-03-19T13:10:19.460Z,2
2018-03-19T13:12:19.354Z,1.9
2018-03-19T13:14:19.218Z,1.2
2018-03-19T13:16:18.930Z,2.4
2018-03-19T13:18:18.880Z,1.3
2018-03-19T13:20:18.779Z,2
2018-03-19T13:22:18.674Z,1.7
2018-03-19T13:24:18.524Z,1.7
2018-03-19T13:26:19.240Z,1.7
2018-03-19T13:28:19.097Z,2.1
2018-03-19T13:30:19.100Z,1.7
2018-03-19T13:32:18.975Z,2.3
2018-03-19T13:34:18.828Z,2
2018-03-19T13:36:19.211Z,1.9
2018-03-19T13:38:19.075Z,1.7
2018-03-19T13:40:19.442Z,1.9
2018-03-19T13:42:19.318Z,1.9
2018-03-19T13:44:19.190Z,2.2
2018-03-19T13:46:18.923Z,2.9
2018-03-19T13:48:18.829Z,2.2
2018-03-19T13:50:18.725Z,2.4
2018-03-19T13:52:18.607Z,2.1
2018-03-19T13:54:19.478Z,1.9
2018-03-19T13:56:19.226Z,2.3
2018-03-19T13:58:19.077Z,2.2
2018-03-19T14:00:18.993Z,1.8
2018-03-19T14:02:18.845Z,1.7
2018-03-19T14:04:18.741Z,2
2018-03-19T14:06:19.477Z,2.3
2018-03-19T14:08:19.350Z,2
2018-03-19T14:10:18.810Z,2.2
2018-03-19T14:12:19.466Z,1.9
2018-03-19T14:14:19.344Z,1.9
2018-03-19T14:16:18.643Z,2.2
2018-03-19T14:18:18.593Z,2.3
2018-03-19T14:20:19.452Z,2.1
2018-03-19T14:22:19.319Z,2.1
2018-03-19T14:24:19.209Z,2
2018-03-19T14:26:18.573Z,1.5
2018-03-19T14:28:19.435Z,1.7
2018-03-19T14:30:19.315Z,2.2
2018-03-19T14:32:19.223Z,2
2018-03-19T14:34:19.101Z,1.4
2018-03-19T14:36:18.912Z,2.4
2018-03-19T14:38:18.835Z,1.8
2018-03-19T14:40:19.164Z,1.9
2018-03-19T14:42:19.036Z,2.4
2018-03-19T14:44:18.927Z,1.9
2018-03-19T14:46:19.508Z,2
2018-03-19T14:48:19.393Z,2.3
2018-03-19T14:50:19.302Z,1.9
2018-03-19T14:52:19.185Z,1.7
2018-03-19T14:54:19.071Z,2
2018-03-19T14:56:19.314Z,1.7
2018-03-19T14:58:19.182Z,1.5
2018-03-19T15:00:19.090Z,2
2018-03-19T15:02:18.957Z,1.8
2018-03-19T15:04:18.844Z,2.4
2018-03-19T15:06:19.183Z,2.3
2018-03-19T15:08:19.066Z,2.1
2018-03-19T15:10:19.479Z,2.1
2018-03-19T15:12:19.364Z,2.1
2018-03-19T15:14:19.235Z,2.2
2018-03-19T15:16:18.562Z,1.9
2018-03-19T15:18:19.518Z,2.2
2018-03-19T15:20:19.417Z,2.1
2018-03-19T15:22:19.301Z,2.7
2018-03-19T15:24:19.178Z,2
2018-03-19T15:26:18.920Z,2.2
2018-03-19T15:28:18.806Z,2.4
2018-03-19T15:30:18.737Z,2.4
2018-03-19T15:32:18.613Z,2.1
2018-03-19T15:34:19.492Z,2.1
2018-03-19T15:36:18.777Z,1.9
2018-03-19T15:38:18.660Z,2.3
2018-03-19T15:40:19.024Z,2.4
2018-03-19T15:42:18.866Z,3.3
2018-03-19T15:44:18.736Z,3.2
2018-03-19T15:46:19.095Z,3.1
2018-03-19T15:48:18.986Z,3.5
2018-03-19T15:50:18.855Z,4.1
2018-03-19T15:52:18.730Z,3.4
2018-03-19T15:54:18.609Z,3.7
2018-03-19T15:56:18.965Z,2.5
2018-03-19T15:58:18.823Z,1.8
2018-03-19T16:00:18.740Z,2.2
2018-03-19T16:02:18.611Z,1.9
2018-03-19T16:04:19.503Z,2
2018-03-19T16:06:18.864Z,2.2
2018-03-19T16:08:18.748Z,1.9
2018-03-19T16:10:19.128Z,2.2
2018-03-19T16:12:19.039Z,2.5
2018-03-19T16:14:18.925Z,2.4
2018-03-19T16:16:18.680Z,2.4
2018-03-19T16:18:18.630Z,2.5
2018-03-19T16:20:19.548Z,2.4
2018-03-19T16:22:19.417Z,3.1
2018-03-19T16:24:19.261Z,3.4
2018-03-19T16:26:19.023Z,2.7
2018-03-19T16:28:18.904Z,4.6
2018-03-19T16:30:18.773Z,4.1
2018-03-19T16:32:18.644Z,3.5
2018-03-19T16:34:19.522Z,2.5
2018-03-19T16:36:19.315Z,2.7
2018-03-19T16:38:19.238Z,2.5
2018-03-19T16:40:18.606Z,3.1
2018-03-19T16:42:19.456Z,3.4
2018-03-19T16:44:19.308Z,3.1
2018-03-19T16:46:19.141Z,2.2
2018-03-19T16:48:19.009Z,3.5
2018-03-19T16:50:18.986Z,3.6
2018-03-19T16:52:18.865Z,3
2018-03-19T16:54:18.740Z,4
2018-03-19T16:56:19.088Z,3.6
2018-03-19T16:58:18.947Z,4.9
2018-03-19T17:00:18.875Z,4.5
2018-03-19T17:02:18.711Z,4.1
2018-03-19T17:04:18.563Z,4.2
2018-03-19T17:06:19.489Z,5.7
2018-03-19T17:08:19.351Z,7
2018-03-19T17:10:18.707Z,7.2
2018-03-19T17:12:18.568Z,6.2
2018-03-19T17:14:19.471Z,6
2018-03-19T17:16:19.235Z,9
2018-03-19T17:18:19.205Z,8.9
2018-03-19T17:20:19.128Z,9.9
2018-03-19T17:22:19.038Z,9
2018-03-19T17:24:18.890Z,8.6
2018-03-19T17:26:18.619Z,8
2018-03-19T17:28:19.473Z,9.9
2018-03-19T17:30:19.345Z,8.8
2018-03-19T17:32:19.214Z,15.9
2018-03-19T17:34:19.068Z,16
2018-03-19T17:36:19.321Z,13.4
2018-03-19T17:38:19.267Z,10.6
2018-03-19T17:40:18.600Z,11
2018-03-19T17:42:19.433Z,12.2
2018-03-19T17:44:19.302Z,12.3
2018-03-19T17:46:19.041Z,13.1
2018-03-19T17:48:18.904Z,13.6
2018-03-19T17:50:18.772Z,13.7
2018-03-19T17:52:18.640Z,12.4
2018-03-19T17:54:19.500Z,13
2018-03-19T17:56:18.756Z,13.6
2018-03-19T17:58:18.611Z,11.9
2018-03-19T18:00:19.470Z,11.1
2018-03-19T18:02:19.336Z,8.8
2018-03-19T18:04:19.186Z,9.2
2018-03-19T18:06:19.495Z,9.4
2018-03-19T18:08:19.381Z,11.6
2018-03-19T18:10:18.712Z,12.1
2018-03-19T18:12:18.570Z,11.9
2018-03-19T18:14:19.459Z,13.6
2018-03-19T18:16:18.750Z,11.9
2018-03-19T18:18:18.693Z,11.4
2018-03-19T18:20:18.581Z,11.9
2018-03-19T18:22:19.431Z,8.9
2018-03-19T18:24:19.313Z,7.1
2018-03-19T18:26:18.647Z,7.3
2018-03-19T18:28:18.509Z,7.1
2018-03-19T18:30:19.372Z,7.7
2018-03-19T18:32:19.216Z,5.4
2018-03-19T18:34:19.065Z,8.6
2018-03-19T18:36:19.327Z,6.4
2018-03-19T18:38:19.175Z,7
2018-03-19T18:40:19.518Z,6.3
2018-03-19T18:42:19.367Z,5.5
2018-03-19T18:44:19.213Z,6.6
2018-03-19T18:46:18.527Z,6.7
2018-03-19T18:48:19.357Z,6.3
2018-03-19T18:50:19.216Z,6.7
2018-03-19T18:52:19.095Z,7
2018-03-19T18:54:18.953Z,6.9
2018-03-19T18:56:18.674Z,6.3
2018-03-19T18:58:18.513Z,6.1
2018-03-19T19:00:19.355Z,7.5
2018-03-19T19:02:19.208Z,6
2018-03-19T19:04:19.074Z,4.3
2018-03-19T19:06:18.840Z,4.9
2018-03-19T19:08:18.709Z,5.2
2018-03-19T19:10:19.078Z,4.9
2018-03-19T19:12:18.930Z,7.9
2018-03-19T19:14:18.778Z,4.9
2018-03-19T19:16:19.018Z,5.6
2018-03-19T19:18:18.924Z,4.5
2018-03-19T19:20:18.788Z,4.3
2018-03-19T19:22:18.654Z,4.3
2018-03-19T19:24:18.532Z,4.5
2018-03-19T19:26:19.330Z,5
2018-03-19T19:28:19.194Z,4.8
2018-03-19T19:30:19.023Z,4.9
2018-03-19T19:32:18.865Z,4.3
2018-03-19T19:34:18.730Z,5
2018-03-19T19:36:19.439Z,4.6
2018-03-19T19:38:19.293Z,4.7
2018-03-19T19:40:18.605Z,5.4
2018-03-19T19:42:19.452Z,6.1
2018-03-19T19:44:19.326Z,3.8
2018-03-19T19:46:19.066Z,3.8
2018-03-19T19:48:18.933Z,5.1
2018-03-19T19:50:18.810Z,4.5
2018-03-19T19:52:18.664Z,4.8
2018-03-19T19:54:18.504Z,5.4
2018-03-19T19:56:19.392Z,5.1
2018-03-19T19:58:19.248Z,6.1
2018-03-19T20:00:19.126Z,5.5
2018-03-19T20:02:18.970Z,5
2018-03-19T20:04:18.811Z,4.3
2018-03-19T20:06:18.574Z,4.1
2018-03-19T20:08:19.427Z,4.1
2018-03-19T20:10:18.812Z,5
2018-03-19T20:12:18.679Z,4.3
2018-03-19T20:14:18.521Z,4.6
2018-03-19T20:16:19.250Z,5.9
2018-03-19T20:18:19.173Z,4.5
2018-03-19T20:20:19.046Z,5.4
2018-03-19T20:22:18.889Z,4.7
2018-03-19T20:24:18.749Z,4.7
2018-03-19T20:26:19.458Z,4.5
2018-03-19T20:28:19.289Z,5.2
2018-03-19T20:30:19.124Z,5.1
2018-03-19T20:32:18.968Z,4
2018-03-19T20:34:18.808Z,4.5
2018-03-19T20:36:18.538Z,4.9
2018-03-19T20:38:19.377Z,4.7
2018-03-19T20:40:18.688Z,5.6
2018-03-19T20:42:18.823Z,5.5
2018-03-19T20:44:18.680Z,5.2
2018-03-19T20:46:18.948Z,5.8
2018-03-19T20:48:18.791Z,4.4
2018-03-19T20:50:18.669Z,5.7
2018-03-19T20:52:18.510Z,6.3
2018-03-19T20:54:19.358Z,5.1
2018-03-19T20:56:18.662Z,7.1
2018-03-19T20:58:19.490Z,5.8
2018-03-19T21:00:19.405Z,7.5
2018-03-19T21:02:19.268Z,7.4
2018-03-19T21:04:19.109Z,4.8
2018-03-19T21:06:18.909Z,4.8
2018-03-19T21:08:18.756Z,4.2
2018-03-19T21:10:19.044Z,4.6
2018-03-19T21:12:18.880Z,5.4
2018-03-19T21:14:18.704Z,5
2018-03-19T21:16:19.087Z,4.2
2018-03-19T21:18:19.023Z,5.7
2018-03-19T21:20:18.860Z,5.4
2018-03-19T21:22:18.700Z,4.9
2018-03-19T21:24:18.542Z,4.5
2018-03-19T21:26:19.236Z,4.9
2018-03-19T21:28:19.084Z,5.3
2018-03-19T21:30:18.947Z,4.4
2018-03-19T21:32:18.764Z,4.8
2018-03-19T21:34:18.659Z,5.3
2018-03-19T21:36:19.384Z,4.4
2018-03-19T21:38:19.234Z,5.6
2018-03-19T21:40:18.578Z,6
2018-03-19T21:42:19.438Z,5.1
2018-03-19T21:44:19.300Z,4.7
2018-03-19T21:46:19.083Z,6.4
2018-03-19T21:48:18.912Z,5.5
2018-03-19T21:50:18.759Z,6.4
2018-03-19T21:52:18.593Z,7.1
2018-03-19T21:54:19.430Z,6.2
2018-03-19T21:56:18.709Z,5.2
2018-03-19T21:58:18.550Z,4.6
2018-03-19T22:00:19.400Z,4.6
2018-03-19T22:02:19.243Z,5.3
2018-03-19T22:04:19.108Z,4.5
2018-03-19T22:06:18.980Z,4.1
2018-03-19T22:08:18.789Z,4.7
2018-03-19T22:10:19.138Z,5.4
2018-03-19T22:12:19.012Z,4.5
2018-03-19T22:14:18.880Z,4.8
2018-03-19T22:16:18.587Z,4.5
2018-03-19T22:18:18.510Z,4.6
2018-03-19T22:20:19.446Z,4.1
2018-03-19T22:22:19.299Z,4.2
2018-03-19T22:24:19.131Z,5.4
2018-03-19T22:26:18.918Z,5.2
2018-03-19T22:28:18.729Z,4.2
2018-03-19T22:30:18.594Z,4.9
2018-03-19T22:32:19.433Z,4.6
2018-03-19T22:34:19.284Z,5.2
2018-03-19T22:36:19.302Z,5.4
2018-03-19T22:38:19.144Z,4.8
2018-03-19T22:40:19.483Z,5.1
2018-03-19T22:42:19.313Z,4
2018-03-19T22:44:19.158Z,5.3
2018-03-19T22:46:18.918Z,4.9
2018-03-19T22:48:18.747Z,4.6
2018-03-19T22:50:18.601Z,4.3
2018-03-19T22:52:19.459Z,5
2018-03-19T22:54:19.314Z,4.7
2018-03-19T22:56:19.072Z,4.3
2018-03-19T22:58:18.917Z,4.1
2018-03-19T23:00:18.773Z,5.2
2018-03-19T23:02:18.616Z,4.4
2018-03-19T23:04:19.448Z,3.8
2018-03-19T23:06:19.262Z,4.4
2018-03-19T23:08:19.120Z,4.7
2018-03-19T23:10:19.451Z,3.6
2018-03-19T23:12:19.312Z,5.2
2018-03-19T23:14:19.201Z,4.9
2018-03-19T23:16:18.958Z,4.9
2018-03-19T23:18:18.879Z,5.3
2018-03-19T23:20:18.738Z,4.7
2018-03-19T23:22:18.556Z,5.2
2018-03-19T23:24:19.397Z,4.7
2018-03-19T23:26:18.674Z,4.5
2018-03-19T23:28:18.520Z,4.4
2018-03-19T23:30:19.381Z,4.1
2018-03-19T23:32:19.240Z,4
2018-03-19T23:34:19.078Z,5.4
2018-03-19T23:36:19.295Z,5.9
2018-03-19T23:38:19.137Z,5.5
2018-03-19T23:40:18.533Z,4.8
2018-03-19T23:42:19.389Z,4.1
2018-03-19T23:44:19.260Z,5.1
2018-03-19T23:46:19.009Z,5.9
2018-03-19T23:48:18.858Z,4.6
2018-03-19T23:50:18.727Z,4.3
2018-03-19T23:52:18.561Z,4
2018-03-19T23:54:19.391Z,5.7
2018-03-19T23:56:18.704Z,5.3
2018-03-19T23:58:18.554Z,4.2
